createdAt,value
2022-12-20T00:01:31.701Z,98.02
2022-12-20T00:04:02.257Z,97.67
2022-12-20T00:06:29.256Z,98.34
2022-12-20T00:08:58.639Z,98.44
2022-12-20T00:11:26.475Z,98.79
2022-12-20T00:13:53.223Z,98.45
2022-12-20T00:16:22.659Z,98.56
2022-12-20T00:18:55.702Z,99.19
2022-12-20T00:21:22.669Z,100.00
2022-12-20T00:23:49.782Z,100.00
2022-12-20T00:26:19.390Z,100.00
2022-12-20T00:28:46.702Z,100.00
2022-12-20T00:31:16.459Z,100.00
2022-12-20T00:33:46.632Z,100.00
2022-12-20T00:36:13.795Z,100.00
2022-12-20T00:38:40.430Z,100.00
2022-12-20T00:41:09.708Z,100.00
2022-12-20T00:43:37.793Z,100.00
2022-12-20T00:46:05.153Z,100.00
2022-12-20T00:48:33.359Z,100.00
2022-12-20T00:51:01.368Z,100.00
2022-12-20T00:53:28.927Z,100.00
2022-12-20T00:55:55.841Z,100.00
2022-12-20T00:58:22.456Z,100.00
2022-12-20T01:00:55.779Z,100.00
2022-12-20T01:03:23.633Z,100.00
2022-12-20T01:05:51.642Z,100.00
2022-12-20T01:08:18.226Z,100.00
2022-12-20T01:10:44.821Z,100.00
2022-12-20T01:13:11.534Z,100.00
2022-12-20T01:15:38.049Z,100.00
2022-12-20T01:18:04.664Z,100.00
2022-12-20T01:20:31.173Z,100.00
2022-12-20T01:22:57.677Z,99.73
2022-12-20T01:25:24.169Z,99.00
2022-12-20T01:27:52.136Z,99.76
2022-12-20T01:30:18.728Z,100.00
2022-12-20T01:32:45.227Z,99.64
2022-12-20T01:35:11.813Z,99.02
2022-12-20T01:37:38.734Z,100.00
2022-12-20T01:40:06.026Z,100.00
2022-12-20T01:42:32.535Z,100.00
2022-12-20T01:44:59.580Z,100.00
2022-12-20T01:47:29.610Z,100.00
2022-12-20T01:49:58.983Z,100.00
2022-12-20T01:52:35.754Z,100.00
2022-12-20T01:55:07.620Z,100.00
2022-12-20T01:57:41.694Z,100.00
2022-12-20T02:00:09.889Z,100.00
2022-12-20T02:02:43.939Z,100.00
2022-12-20T02:05:11.506Z,100.00
2022-12-20T02:07:38.956Z,100.00
2022-12-20T02:10:07.548Z,100.00
2022-12-20T02:12:43.529Z,100.00
2022-12-20T02:15:30.305Z,100.00
2022-12-20T02:18:31.818Z,100.00
2022-12-20T02:21:14.293Z,100.00
2022-12-20T02:24:07.978Z,100.00
2022-12-20T02:26:58.562Z,99.86
2022-12-20T02:29:31.232Z,99.36
2022-12-20T02:32:14.499Z,98.91
2022-12-20T02:34:42.099Z,99.63
2022-12-20T02:37:09.961Z,98.91
2022-12-20T02:39:39.242Z,98.36
2022-12-20T02:42:08.805Z,98.63
2022-12-20T02:44:58.542Z,99.47
2022-12-20T02:47:33.479Z,100.00
2022-12-20T02:50:01.471Z,100.00
2022-12-20T02:52:31.762Z,100.00
2022-12-20T02:54:59.597Z,99.59
2022-12-20T02:57:57.835Z,99.99
2022-12-20T03:00:32.099Z,100.00
2022-12-20T03:03:17.789Z,100.00
2022-12-20T03:05:47.445Z,100.00
2022-12-20T03:08:17.427Z,100.00
2022-12-20T03:10:44.354Z,99.77
2022-12-20T03:13:11.478Z,98.92
2022-12-20T03:15:46.008Z,97.42
2022-12-20T03:18:12.788Z,96.74
2022-12-20T03:20:40.080Z,96.53
2022-12-20T03:23:07.033Z,96.02
2022-12-20T03:25:33.891Z,95.59
2022-12-20T03:28:01.770Z,95.50
2022-12-20T03:30:28.743Z,94.93
2022-12-20T03:32:55.210Z,95.20
2022-12-20T03:35:21.793Z,94.83
2022-12-20T03:37:48.377Z,95.13
2022-12-20T03:40:16.008Z,94.74
2022-12-20T03:42:43.848Z,94.19
2022-12-20T03:45:10.994Z,94.62
2022-12-20T03:47:37.841Z,93.86
2022-12-20T03:50:06.413Z,94.31
2022-12-20T03:52:34.947Z,94.87
2022-12-20T03:55:01.739Z,94.74
2022-12-20T03:57:40.098Z,94.88
2022-12-20T04:00:17.829Z,95.81
2022-12-20T04:02:47.890Z,95.96
2022-12-20T04:05:14.813Z,96.60
2022-12-20T04:07:41.326Z,96.46
2022-12-20T04:10:08.508Z,96.87
2022-12-20T04:12:35.115Z,96.10
2022-12-20T04:15:03.777Z,95.31
2022-12-20T04:17:30.348Z,94.15
2022-12-20T04:19:56.953Z,93.63
2022-12-20T04:22:23.491Z,93.37
2022-12-20T04:24:56.357Z,92.78
2022-12-20T04:27:25.681Z,92.24
2022-12-20T04:29:54.511Z,92.32
2022-12-20T04:32:21.983Z,92.57
2022-12-20T04:34:48.963Z,92.67
2022-12-20T04:37:15.708Z,92.45
2022-12-20T04:39:49.936Z,93.13
2022-12-20T04:42:23.004Z,93.39
2022-12-20T04:44:50.657Z,93.24
2022-12-20T04:47:22.620Z,93.38
2022-12-20T04:49:51.566Z,93.39
2022-12-20T04:52:40.841Z,93.30
2022-12-20T04:55:09.974Z,92.73
2022-12-20T04:57:36.637Z,92.30
2022-12-20T05:00:06.045Z,91.99
2022-12-20T05:02:32.692Z,91.71
2022-12-20T05:05:07.130Z,91.23
2022-12-20T05:07:40.318Z,91.07
2022-12-20T05:10:07.891Z,90.59
2022-12-20T05:12:34.431Z,90.68
2022-12-20T05:15:04.752Z,90.60
2022-12-20T05:17:31.342Z,91.19
2022-12-20T05:19:59.251Z,90.58
2022-12-20T05:22:44.289Z,91.28
2022-12-20T05:25:31.912Z,91.26
2022-12-20T05:28:03.342Z,91.74
2022-12-20T05:30:34.092Z,91.57
2022-12-20T05:33:00.667Z,91.13
2022-12-20T05:35:27.904Z,90.33
2022-12-20T05:38:02.428Z,90.17
2022-12-20T05:40:28.931Z,89.74
2022-12-20T05:42:55.509Z,90.13
2022-12-20T05:45:29.176Z,90.65
2022-12-20T05:48:01.572Z,91.24
2022-12-20T05:50:28.353Z,91.59
2022-12-20T05:53:15.529Z,92.30
2022-12-20T05:55:52.833Z,92.56
2022-12-20T05:58:20.826Z,92.34
2022-12-20T06:00:53.649Z,92.59
2022-12-20T06:03:21.360Z,92.42
2022-12-20T06:05:48.110Z,92.35
2022-12-20T06:08:21.401Z,91.66
2022-12-20T06:10:49.218Z,90.99
2022-12-20T06:13:18.211Z,91.00
2022-12-20T06:15:45.075Z,91.36
2022-12-20T06:18:11.721Z,91.42
2022-12-20T06:20:39.258Z,91.41
2022-12-20T06:23:07.453Z,91.52
2022-12-20T06:25:40.569Z,91.65
2022-12-20T06:28:07.637Z,91.45
2022-12-20T06:30:34.934Z,91.29
2022-12-20T06:33:06.352Z,90.62
2022-12-20T06:35:32.906Z,90.31
2022-12-20T06:37:59.885Z,89.99
2022-12-20T06:40:29.539Z,90.13
2022-12-20T06:42:59.303Z,90.63
2022-12-20T06:45:25.863Z,90.29
2022-12-20T06:47:53.244Z,90.65
2022-12-20T06:50:20.302Z,90.07
2022-12-20T06:52:46.837Z,90.76
2022-12-20T06:55:13.404Z,90.64
2022-12-20T06:57:40.985Z,90.35
2022-12-20T07:00:08.633Z,89.98
2022-12-20T07:02:35.535Z,89.60
2022-12-20T07:05:02.208Z,89.21
2022-12-20T07:07:28.634Z,90.83
2022-12-20T07:09:55.130Z,91.72
2022-12-20T07:12:21.883Z,92.51
2022-12-20T07:14:49.049Z,92.76
2022-12-20T07:17:15.910Z,92.49
2022-12-20T07:19:48.701Z,92.81
2022-12-20T07:22:17.498Z,92.02
2022-12-20T07:24:44.078Z,91.64
2022-12-20T07:27:11.078Z,91.30
2022-12-20T07:29:40.157Z,90.44
2022-12-20T07:32:06.957Z,90.81
2022-12-20T07:34:33.720Z,90.52
2022-12-20T07:37:00.190Z,90.54
2022-12-20T07:39:26.702Z,90.78
2022-12-20T07:41:55.008Z,90.25
2022-12-20T07:44:23.146Z,89.82
2022-12-20T07:46:49.642Z,89.66
2022-12-20T07:49:16.268Z,89.67
2022-12-20T07:51:50.102Z,89.62
2022-12-20T07:54:28.248Z,90.15
2022-12-20T07:57:04.069Z,90.19
2022-12-20T07:59:38.275Z,89.97
2022-12-20T08:02:05.767Z,90.13
2022-12-20T08:07:01.820Z,91.14
2022-12-20T08:09:34.048Z,90.88
2022-12-20T08:12:00.848Z,91.34
2022-12-20T08:14:27.351Z,91.34
2022-12-20T08:16:53.926Z,91.11
2022-12-20T08:19:20.651Z,91.88
2022-12-20T08:21:47.135Z,92.54
2022-12-20T08:24:13.609Z,92.06
2022-12-20T08:26:41.745Z,91.56
2022-12-20T08:29:08.973Z,92.01
2022-12-20T08:31:43.131Z,92.01
2022-12-20T08:34:14.222Z,91.78
2022-12-20T08:36:41.020Z,91.23
2022-12-20T08:39:08.065Z,90.71
2022-12-20T08:41:35.088Z,90.51
2022-12-20T08:44:01.523Z,89.98
2022-12-20T08:46:28.129Z,89.47
2022-12-20T08:48:54.704Z,90.00
2022-12-20T08:51:21.304Z,89.50
2022-12-20T08:53:48.081Z,88.75
2022-12-20T08:56:18.084Z,88.87
2022-12-20T08:58:46.691Z,87.94
2022-12-20T09:01:16.468Z,88.97
2022-12-20T09:03:43.865Z,88.89
2022-12-20T09:06:17.056Z,88.38
2022-12-20T09:08:43.769Z,88.87
2022-12-20T09:11:13.396Z,88.08
2022-12-20T09:13:44.382Z,88.57
2022-12-20T09:16:13.740Z,88.22
2022-12-20T09:18:40.563Z,88.01
2022-12-20T09:21:08.120Z,87.59
2022-12-20T09:23:36.168Z,87.98
2022-12-20T09:26:05.405Z,87.47
2022-12-20T09:28:33.283Z,88.24
2022-12-20T09:31:00.872Z,88.55
2022-12-20T09:33:28.512Z,88.36
2022-12-20T09:35:55.247Z,87.88
2022-12-20T09:38:21.746Z,87.51
2022-12-20T09:40:51.528Z,87.52
2022-12-20T09:43:18.561Z,87.32
2022-12-20T09:45:48.513Z,86.67
2022-12-20T09:48:20.039Z,86.37
2022-12-20T09:50:52.396Z,85.92
2022-12-20T09:53:22.377Z,85.38
2022-12-20T09:55:56.044Z,84.73
2022-12-20T09:58:53.420Z,83.77
2022-12-20T10:01:25.261Z,84.43
2022-12-20T10:03:54.887Z,85.65
2022-12-20T10:06:33.535Z,85.41
2022-12-20T10:09:03.302Z,85.36
2022-12-20T10:11:50.534Z,85.51
2022-12-20T10:14:20.240Z,85.94
2022-12-20T10:16:51.820Z,86.30
2022-12-20T10:19:50.529Z,86.11
2022-12-20T10:22:43.373Z,84.66
2022-12-20T10:25:31.897Z,83.77
2022-12-20T10:28:02.687Z,83.70
2022-12-20T10:30:31.780Z,83.31
2022-12-20T10:32:58.928Z,84.15
2022-12-20T10:35:40.420Z,83.22
2022-12-20T10:38:12.760Z,82.99
2022-12-20T10:43:36.440Z,82.87
2022-12-20T10:46:08.067Z,82.61
2022-12-20T10:48:36.928Z,83.01
2022-12-20T10:51:16.198Z,83.06
2022-12-20T10:54:22.171Z,83.82
2022-12-20T10:56:57.521Z,83.22
2022-12-20T10:59:32.163Z,83.26
2022-12-20T11:01:59.176Z,82.93
2022-12-20T11:04:35.547Z,83.23
2022-12-20T11:07:21.520Z,83.63
2022-12-20T11:09:59.721Z,83.22
2022-12-20T11:12:26.502Z,83.50
2022-12-20T11:15:11.072Z,83.27
2022-12-20T11:17:43.471Z,83.35
2022-12-20T11:20:38.486Z,82.41
2022-12-20T11:23:28.859Z,81.88
2022-12-20T11:26:16.766Z,81.21
2022-12-20T11:29:00.139Z,81.47
2022-12-20T11:31:54.546Z,81.94
2022-12-20T11:34:39.106Z,81.60
2022-12-20T11:37:05.624Z,81.40
2022-12-20T11:39:40.891Z,80.58
2022-12-20T11:42:19.885Z,80.69
2022-12-20T11:45:11.693Z,79.85
2022-12-20T11:48:09.933Z,81.24
2022-12-20T11:50:51.459Z,81.69
2022-12-20T11:53:27.266Z,81.03
2022-12-20T11:55:58.660Z,80.82
2022-12-20T11:58:27.633Z,80.24
2022-12-20T12:01:09.698Z,80.03
2022-12-20T12:03:39.031Z,79.44
2022-12-20T12:06:12.378Z,79.56
2022-12-20T12:08:49.985Z,79.15
2022-12-20T12:12:05.261Z,78.71
2022-12-20T12:14:26.158Z,78.64
2022-12-20T12:16:57.458Z,79.50
2022-12-20T12:19:29.095Z,79.93
2022-12-20T12:22:05.574Z,79.58
2022-12-20T12:24:39.063Z,78.35
2022-12-20T12:27:08.851Z,77.34
2022-12-20T12:29:37.763Z,77.62
2022-12-20T12:32:38.618Z,77.39
2022-12-20T12:35:17.675Z,77.52
2022-12-20T12:38:05.662Z,78.19
2022-12-20T12:40:56.294Z,77.77
2022-12-20T12:44:04.261Z,78.27
2022-12-20T12:46:36.263Z,76.75
2022-12-20T12:49:12.216Z,76.43
2022-12-20T12:51:42.602Z,75.79
2022-12-20T12:54:08.978Z,76.22
2022-12-20T12:56:44.465Z,77.50
2022-12-20T12:59:12.205Z,78.14
2022-12-20T13:02:06.893Z,78.12
2022-12-20T13:04:57.533Z,79.09
2022-12-20T13:07:45.773Z,80.04
2022-12-20T13:10:15.334Z,79.15
2022-12-20T13:12:41.816Z,77.65
2022-12-20T13:15:20.770Z,76.92
2022-12-20T13:18:01.174Z,77.35
2022-12-20T13:20:33.814Z,77.12
2022-12-20T13:23:10.290Z,77.17
2022-12-20T13:25:45.537Z,77.50
2022-12-20T13:28:24.574Z,77.86
2022-12-20T13:31:04.527Z,78.34
2022-12-20T13:33:44.575Z,77.05
2022-12-20T13:36:11.022Z,77.19
2022-12-20T13:38:44.737Z,76.85
2022-12-20T13:41:46.918Z,78.55
2022-12-20T13:44:16.158Z,77.64
2022-12-20T13:46:46.806Z,77.18
2022-12-20T13:49:25.774Z,78.27
2022-12-20T13:52:11.094Z,78.24
2022-12-20T13:54:43.712Z,78.76
2022-12-20T13:57:16.247Z,77.95
2022-12-20T13:59:47.421Z,78.81
2022-12-20T14:02:21.232Z,78.98
2022-12-20T14:05:01.928Z,80.37
2022-12-20T14:07:30.873Z,80.38
2022-12-20T14:10:00.479Z,79.57
2022-12-20T14:12:33.014Z,78.69
2022-12-20T14:15:03.387Z,78.38
2022-12-20T14:17:32.407Z,78.96
2022-12-20T14:20:25.371Z,79.77
2022-12-20T14:23:04.136Z,79.26
2022-12-20T14:25:41.849Z,78.35
2022-12-20T14:28:27.089Z,79.19
2022-12-20T14:30:55.564Z,79.78
2022-12-20T14:33:34.246Z,79.22
2022-12-20T14:36:08.213Z,78.48
2022-12-20T14:38:34.969Z,78.38
2022-12-20T14:41:01.460Z,77.94
2022-12-20T14:43:37.815Z,79.30
2022-12-20T14:46:09.341Z,79.80
2022-12-20T14:48:35.943Z,80.69
2022-12-20T14:51:05.272Z,81.07
2022-12-20T14:53:31.923Z,80.28
2022-12-20T14:55:58.557Z,79.38
2022-12-20T14:58:34.085Z,79.02
2022-12-20T15:01:16.153Z,79.29
2022-12-20T15:03:51.529Z,80.01
2022-12-20T15:06:43.413Z,79.15
2022-12-20T15:09:10.327Z,79.24
2022-12-20T15:11:38.040Z,80.01
2022-12-20T15:14:40.781Z,79.69
2022-12-20T15:17:13.365Z,79.87
2022-12-20T15:19:42.595Z,80.36
2022-12-20T15:22:16.755Z,80.49
2022-12-20T15:24:43.543Z,80.81
2022-12-20T15:27:14.770Z,80.23
2022-12-20T15:29:41.751Z,80.03
2022-12-20T15:32:21.743Z,79.96
2022-12-20T15:34:48.233Z,80.28
2022-12-20T15:37:18.179Z,80.44
2022-12-20T15:39:45.713Z,80.83
2022-12-20T15:42:16.930Z,80.96
2022-12-20T15:44:43.924Z,81.52
2022-12-20T15:47:13.784Z,81.29
2022-12-20T15:49:46.169Z,81.34
2022-12-20T15:52:20.610Z,80.79
2022-12-20T15:54:47.318Z,81.57
2022-12-20T15:57:15.531Z,81.17
2022-12-20T16:00:00.550Z,81.30
2022-12-20T16:02:30.827Z,82.27
2022-12-20T16:04:59.851Z,82.51
2022-12-20T16:07:26.446Z,83.15
2022-12-20T16:09:52.920Z,84.01
2022-12-20T16:12:25.492Z,84.93
2022-12-20T16:14:52.028Z,85.71
2022-12-20T16:17:18.590Z,86.37
2022-12-20T16:19:45.855Z,86.42
2022-12-20T16:22:22.132Z,88.06
2022-12-20T16:24:49.491Z,87.93
2022-12-20T16:27:16.113Z,88.24
2022-12-20T16:29:42.752Z,88.55
2022-12-20T16:32:14.818Z,88.87
2022-12-20T16:34:41.330Z,89.06
2022-12-20T16:37:07.805Z,88.56
2022-12-20T16:39:34.331Z,87.70
2022-12-20T16:42:01.616Z,87.51
2022-12-20T16:44:28.219Z,87.14
2022-12-20T16:46:54.780Z,86.17
2022-12-20T16:49:21.425Z,86.33
2022-12-20T16:51:49.006Z,86.48
2022-12-20T16:54:20.591Z,85.87
2022-12-20T16:56:50.996Z,86.24
2022-12-20T16:59:19.849Z,86.65
2022-12-20T17:01:49.580Z,86.89
2022-12-20T17:04:18.005Z,87.07
2022-12-20T17:06:45.321Z,87.73
2022-12-20T17:09:12.362Z,87.89
2022-12-20T17:11:39.683Z,88.87
2022-12-20T17:14:12.301Z,88.10
2022-12-20T17:16:40.412Z,88.27
2022-12-20T17:19:07.180Z,89.42
2022-12-20T17:24:27.050Z,90.21
2022-12-20T17:26:53.597Z,90.96
2022-12-20T17:29:20.518Z,91.06
2022-12-20T17:31:48.160Z,92.26
2022-12-20T17:34:22.225Z,93.38
2022-12-20T17:36:50.519Z,94.14
2022-12-20T17:39:17.186Z,93.73
2022-12-20T17:41:44.619Z,94.04
2022-12-20T17:44:26.160Z,93.55
2022-12-20T17:46:53.807Z,93.71
2022-12-20T17:49:21.133Z,94.02
2022-12-20T17:51:47.719Z,92.77
2022-12-20T17:54:40.524Z,92.68
2022-12-20T17:57:14.246Z,91.94
2022-12-20T17:59:40.777Z,91.55
2022-12-20T18:02:21.840Z,91.55
2022-12-20T18:04:48.878Z,88.09
2022-12-20T18:07:15.466Z,84.03
2022-12-20T18:09:41.907Z,82.48
2022-12-20T18:12:10.428Z,80.66
2022-12-20T18:14:36.912Z,79.07
2022-12-20T18:17:03.500Z,78.18
2022-12-20T18:19:30.062Z,78.00
2022-12-20T18:21:58.114Z,77.81
2022-12-20T18:24:24.649Z,78.21
2022-12-20T18:26:51.164Z,78.23
2022-12-20T18:29:17.649Z,78.35
2022-12-20T18:31:44.352Z,78.36
2022-12-20T18:34:10.873Z,78.02
2022-12-20T18:36:37.979Z,78.46
2022-12-20T18:39:07.398Z,78.44
2022-12-20T18:41:35.066Z,78.10
2022-12-20T18:44:03.934Z,77.98
2022-12-20T18:46:30.749Z,77.22
2022-12-20T18:48:59.174Z,76.61
2022-12-20T18:51:28.287Z,76.88
2022-12-20T18:53:56.661Z,78.41
2022-12-20T18:56:26.585Z,78.86
2022-12-20T18:58:53.373Z,79.24
2022-12-20T19:01:25.901Z,78.79
2022-12-20T19:03:53.885Z,79.49
2022-12-20T19:06:22.160Z,80.19
2022-12-20T19:08:49.237Z,80.12
2022-12-20T19:11:22.075Z,80.85
2022-12-20T19:13:49.377Z,81.25
2022-12-20T19:16:21.735Z,81.29
2022-12-20T19:18:48.581Z,81.77
2022-12-20T19:21:24.304Z,82.92
2022-12-20T19:23:53.743Z,82.33
2022-12-20T19:26:22.373Z,84.07
2022-12-20T19:28:49.143Z,84.25
2022-12-20T19:31:27.416Z,85.47
2022-12-20T19:33:56.850Z,85.91
2022-12-20T19:36:31.689Z,85.95
2022-12-20T19:39:00.558Z,86.59
2022-12-20T19:41:29.683Z,86.93
2022-12-20T19:43:57.039Z,87.33
2022-12-20T19:46:29.322Z,88.65
2022-12-20T19:48:57.766Z,89.56
2022-12-20T19:51:24.371Z,90.76
2022-12-20T19:53:53.138Z,87.60
2022-12-20T19:56:22.869Z,83.53
2022-12-20T19:58:49.595Z,81.90
2022-12-20T20:01:17.900Z,80.43
2022-12-20T20:03:45.401Z,79.55
2022-12-20T20:06:12.440Z,79.97
2022-12-20T20:08:40.045Z,80.97
2022-12-20T20:11:09.806Z,80.11
2022-12-20T20:13:37.635Z,79.72
2022-12-20T20:16:05.581Z,79.42
2022-12-20T20:18:37.567Z,78.53
2022-12-20T20:21:17.891Z,78.16
2022-12-20T20:23:44.821Z,79.26
2022-12-20T20:26:14.786Z,80.22
2022-12-20T20:28:44.778Z,81.32
2022-12-20T20:31:16.978Z,81.11
2022-12-20T20:33:43.760Z,81.40
2022-12-20T20:36:13.390Z,82.26
2022-12-20T20:38:40.135Z,82.40
2022-12-20T20:41:06.656Z,83.98
2022-12-20T20:43:37.834Z,84.42
2022-12-20T20:46:06.096Z,83.09
2022-12-20T20:48:32.636Z,82.45
2022-12-20T20:50:59.177Z,81.85
2022-12-20T20:53:32.752Z,81.23
2022-12-20T20:56:00.214Z,80.93
2022-12-20T20:58:27.073Z,80.49
2022-12-20T21:00:58.954Z,80.09
2022-12-20T21:03:27.354Z,80.12
2022-12-20T21:08:40.751Z,81.01
2022-12-20T21:11:08.440Z,80.74
2022-12-20T21:13:35.612Z,80.32
2022-12-20T21:16:09.830Z,82.56
2022-12-20T21:18:36.405Z,83.28
2022-12-20T21:21:10.501Z,83.97
2022-12-20T21:23:38.285Z,84.04
2022-12-20T21:26:05.035Z,84.09
2022-12-20T21:28:31.632Z,84.02
2022-12-20T21:31:02.581Z,83.31
2022-12-20T21:33:29.472Z,83.63
2022-12-20T21:36:03.869Z,83.14
2022-12-20T21:38:30.673Z,81.73
2022-12-20T21:41:05.801Z,81.39
2022-12-20T21:43:32.993Z,80.98
2022-12-20T21:45:59.739Z,82.00
2022-12-20T21:48:27.189Z,81.90
2022-12-20T21:51:05.530Z,81.88
2022-12-20T21:53:33.438Z,82.42
2022-12-20T21:56:00.633Z,82.50
2022-12-20T21:58:28.752Z,83.52
2022-12-20T22:00:56.425Z,83.33
2022-12-20T22:03:24.224Z,84.58
2022-12-20T22:05:52.737Z,83.75
2022-12-20T22:08:20.375Z,83.63
2022-12-20T22:10:46.929Z,83.21
2022-12-20T22:13:13.547Z,84.35
2022-12-20T22:15:40.695Z,85.53
2022-12-20T22:18:08.396Z,85.06
2022-12-20T22:20:36.197Z,84.99
2022-12-20T22:23:02.763Z,84.75
2022-12-20T22:25:29.919Z,84.10
2022-12-20T22:27:56.554Z,83.79
2022-12-20T22:30:23.097Z,83.64
2022-12-20T22:32:49.660Z,85.04
2022-12-20T22:35:22.201Z,85.86
2022-12-20T22:37:49.292Z,86.24
2022-12-20T22:40:15.859Z,86.67
2022-12-20T22:42:42.342Z,87.61
2022-12-20T22:45:09.743Z,88.25
2022-12-20T22:47:36.867Z,88.52
2022-12-20T22:50:06.692Z,88.80
2022-12-20T22:52:33.796Z,88.11
2022-12-20T22:55:00.257Z,87.27
2022-12-20T22:57:27.677Z,87.15
2022-12-20T22:59:58.537Z,87.47
2022-12-20T23:02:26.518Z,88.01
2022-12-20T23:04:53.557Z,87.82
2022-12-20T23:07:21.195Z,87.90
2022-12-20T23:09:48.501Z,87.68
2022-12-20T23:12:33.909Z,87.89
2022-12-20T23:15:18.859Z,87.91
2022-12-20T23:17:45.308Z,87.47
2022-12-20T23:20:30.804Z,87.69
2022-12-20T23:22:57.299Z,87.12
2022-12-20T23:25:25.432Z,87.15
2022-12-20T23:27:52.599Z,87.28
2022-12-20T23:30:22.062Z,87.13
2022-12-20T23:32:49.133Z,87.79
2022-12-20T23:35:17.951Z,87.46
2022-12-20T23:37:45.894Z,88.07
2022-12-20T23:40:13.572Z,87.79
2022-12-20T23:42:40.165Z,88.29
2022-12-20T23:45:07.185Z,88.18
2022-12-20T23:47:33.701Z,88.67
2022-12-20T23:50:00.262Z,88.60
2022-12-20T23:52:26.831Z,89.56
2022-12-20T23:54:53.349Z,90.35
2022-12-20T23:57:19.834Z,90.87
2022-12-20T23:59:46.367Z,91.50
